sensor_id;sensor_type;location;lat;lon;timestamp;pressure;altitude;pressure_sealevel;temperature;humidity
76448;BME280;65284;51.040;13.722;2023-11-19T00:01:25;99904.06;;;3.48;100.00
76448;BME280;65284;51.040;13.722;2023-11-19T00:03:51;99891.91;;;3.47;100.00
76448;BME280;65284;51.040;13.722;2023-11-19T00:06:18;99884.75;;;3.49;100.00
76448;BME280;65284;51.040;13.722;2023-11-19T00:08:44;99877.31;;;3.54;100.00
76448;BME280;65284;51.040;13.722;2023-11-19T00:11:11;99841.06;;;3.48;100.00
76448;BME280;65284;51.040;13.722;2023-11-19T00:13:41;99858.13;;;3.54;100.00
76448;BME280;65284;51.040;13.722;2023-11-19T00:16:08;99830.56;;;3.48;100.00
76448;BME280;65284;51.040;13.722;2023-11-19T00:18:36;99830.78;;;3.45;100.00
76448;BME280;65284;51.040;13.722;2023-11-19T00:21:02;99831.28;;;3.50;100.00
76448;BME280;65284;51.040;13.722;2023-11-19T00:23:29;99838.81;;;3.44;100.00
76448;BME280;65284;51.040;13.722;2023-11-19T00:25:55;99839.63;;;3.44;100.00
76448;BME280;65284;51.040;13.722;2023-11-19T00:28:21;99833.66;;;3.42;100.00
76448;BME280;65284;51.040;13.722;2023-11-19T00:30:48;99804.19;;;3.38;100.00
76448;BME280;65284;51.040;13.722;2023-11-19T00:33:15;99817.81;;;3.44;100.00
76448;BME280;65284;51.040;13.722;2023-11-19T00:35:42;99821.72;;;3.38;100.00
76448;BME280;65284;51.040;13.722;2023-11-19T00:38:08;99822.66;;;3.37;100.00
76448;BME280;65284;51.040;13.722;2023-11-19T00:40:34;99802.53;;;3.37;100.00
76448;BME280;65284;51.040;13.722;2023-11-19T00:43:01;99805.25;;;3.36;100.00
76448;BME280;65284;51.040;13.722;2023-11-19T00:45:27;99804.44;;;3.35;100.00
76448;BME280;65284;51.040;13.722;2023-11-19T00:47:54;99797.53;;;3.34;100.00
76448;BME280;65284;51.040;13.722;2023-11-19T00:50:21;99802.41;;;3.28;100.00
76448;BME280;65284;51.040;13.722;2023-11-19T00:52:47;99784.97;;;3.27;100.00
76448;BME280;65284;51.040;13.722;2023-11-19T00:55:14;99782.34;;;3.27;100.00
76448;BME280;65284;51.040;13.722;2023-11-19T00:57:40;99793.09;;;3.24;100.00
76448;BME280;65284;51.040;13.722;2023-11-19T01:00:07;99778.06;;;3.26;100.00
76448;BME280;65284;51.040;13.722;2023-11-19T01:02:41;99766.72;;;3.25;100.00
76448;BME280;65284;51.040;13.722;2023-11-19T01:05:08;99767.09;;;3.32;100.00
76448;BME280;65284;51.040;13.722;2023-11-19T01:07:35;99753.50;;;3.27;100.00
76448;BME280;65284;51.040;13.722;2023-11-19T01:10:01;99758.84;;;3.25;100.00
76448;BME280;65284;51.040;13.722;2023-11-19T01:12:29;99747.41;;;3.26;100.00
76448;BME280;65284;51.040;13.722;2023-11-19T01:14:57;99733.47;;;3.26;100.00
76448;BME280;65284;51.040;13.722;2023-11-19T01:17:24;99709.47;;;3.30;100.00
76448;BME280;65284;51.040;13.722;2023-11-19T01:19:50;99711.50;;;3.27;100.00
76448;BME280;65284;51.040;13.722;2023-11-19T01:22:17;99722.25;;;3.24;100.00
76448;BME280;65284;51.040;13.722;2023-11-19T01:24:45;99718.66;;;3.25;100.00
76448;BME280;65284;51.040;13.722;2023-11-19T01:27:11;99711.50;;;3.27;100.00
76448;BME280;65284;51.040;13.722;2023-11-19T01:29:38;99715.09;;;3.26;100.00
76448;BME280;65284;51.040;13.722;2023-11-19T01:32:04;99705.75;;;3.33;100.00
76448;BME280;65284;51.040;13.722;2023-11-19T01:34:31;99699.09;;;3.29;100.00
76448;BME280;65284;51.040;13.722;2023-11-19T01:36:57;99685.25;;;3.27;100.00
76448;BME280;65284;51.040;13.722;2023-11-19T01:39:24;99689.44;;;3.29;100.00
76448;BME280;65284;51.040;13.722;2023-11-19T01:41:50;99693.00;;;3.28;100.00
76448;BME280;65284;51.040;13.722;2023-11-19T01:44:17;99673.09;;;3.26;100.00
76448;BME280;65284;51.040;13.722;2023-11-19T01:46:45;99672.84;;;3.29;100.00
76448;BME280;65284;51.040;13.722;2023-11-19T01:49:15;99659.69;;;3.40;100.00
76448;BME280;65284;51.040;13.722;2023-11-19T01:51:44;99651.47;;;3.33;100.00
76448;BME280;65284;51.040;13.722;2023-11-19T01:54:11;99658.03;;;3.39;100.00
76448;BME280;65284;51.040;13.722;2023-11-19T01:56:38;99637.28;;;3.36;100.00
76448;BME280;65284;51.040;13.722;2023-11-19T01:59:07;99652.19;;;3.35;100.00
76448;BME280;65284;51.040;13.722;2023-11-19T02:01:36;99633.44;;;3.40;100.00
76448;BME280;65284;51.040;13.722;2023-11-19T02:04:07;99605.78;;;3.36;100.00
76448;BME280;65284;51.040;13.722;2023-11-19T02:06:37;99601.50;;;3.35;100.00
76448;BME280;65284;51.040;13.722;2023-11-19T02:09:06;99598.88;;;3.35;100.00
76448;BME280;65284;51.040;13.722;2023-11-19T02:11:34;99601.50;;;3.35;100.00
76448;BME280;65284;51.040;13.722;2023-11-19T02:14:01;99597.28;;;3.44;100.00
76448;BME280;65284;51.040;13.722;2023-11-19T02:16:29;99593.81;;;3.43;100.00
76448;BME280;65284;51.040;13.722;2023-11-19T02:18:56;99600.59;;;3.46;100.00
76448;BME280;65284;51.040;13.722;2023-11-19T02:21:23;99577.34;;;3.52;100.00
76448;BME280;65284;51.040;13.722;2023-11-19T02:23:49;99565.53;;;3.47;100.00
76448;BME280;65284;51.040;13.722;2023-11-19T02:26:36;99550.03;;;3.44;100.00
76448;BME280;65284;51.040;13.722;2023-11-19T02:29:05;99541.91;;;3.47;100.00
76448;BME280;65284;51.040;13.722;2023-11-19T02:31:34;99539.16;;;3.48;100.00
76448;BME280;65284;51.040;13.722;2023-11-19T02:34:01;99539.59;;;3.53;100.00
76448;BME280;65284;51.040;13.722;2023-11-19T02:36:29;99538.63;;;3.54;100.00
76448;BME280;65284;51.040;13.722;2023-11-19T02:38:55;99523.84;;;3.53;100.00
76448;BME280;65284;51.040;13.722;2023-11-19T02:41:22;99520.00;;;3.57;100.00
76448;BME280;65284;51.040;13.722;2023-11-19T02:43:48;99510.66;;;3.64;100.00
76448;BME280;65284;51.040;13.722;2023-11-19T02:46:15;99511.34;;;3.67;100.00
76448;BME280;65284;51.040;13.722;2023-11-19T02:48:43;99504.31;;;3.67;100.00
76448;BME280;65284;51.040;13.722;2023-11-19T02:51:11;99497.13;;;3.69;100.00
76448;BME280;65284;51.040;13.722;2023-11-19T02:53:38;99494.25;;;3.72;100.00
76448;BME280;65284;51.040;13.722;2023-11-19T02:56:06;99497.59;;;3.74;100.00
76448;BME280;65284;51.040;13.722;2023-11-19T02:58:46;99486.69;;;3.79;100.00
76448;BME280;65284;51.040;13.722;2023-11-19T03:01:13;99473.56;;;3.79;100.00
76448;BME280;65284;51.040;13.722;2023-11-19T03:03:50;99466.50;;;3.79;100.00
76448;BME280;65284;51.040;13.722;2023-11-19T03:06:21;99460.16;;;3.82;100.00
76448;BME280;65284;51.040;13.722;2023-11-19T03:08:48;99449.94;;;3.79;100.00
76448;BME280;65284;51.040;13.722;2023-11-19T03:11:15;99443.81;;;3.78;100.00
76448;BME280;65284;51.040;13.722;2023-11-19T03:13:41;99439.44;;;3.79;100.00
76448;BME280;65284;51.040;13.722;2023-11-19T03:16:08;99439.16;;;3.82;100.00
76448;BME280;65284;51.040;13.722;2023-11-19T03:18:34;99437.81;;;3.87;100.00
76448;BME280;65284;51.040;13.722;2023-11-19T03:21:01;99433.63;;;3.85;100.00
76448;BME280;65284;51.040;13.722;2023-11-19T03:23:27;99437.22;;;3.84;100.00
76448;BME280;65284;51.040;13.722;2023-11-19T03:25:54;99424.53;;;3.89;100.00
76448;BME280;65284;51.040;13.722;2023-11-19T03:28:21;99412.78;;;3.93;100.00
76448;BME280;65284;51.040;13.722;2023-11-19T03:30:47;99410.16;;;3.93;100.00
76448;BME280;65284;51.040;13.722;2023-11-19T03:33:14;99417.09;;;3.94;100.00
76448;BME280;65284;51.040;13.722;2023-11-19T03:35:40;99416.81;;;3.97;99.99
76448;BME280;65284;51.040;13.722;2023-11-19T03:38:07;99414.47;;;4.04;99.44
76448;BME280;65284;51.040;13.722;2023-11-19T03:40:34;99406.88;;;4.01;99.48
76448;BME280;65284;51.040;13.722;2023-11-19T03:43:00;99400.78;;;4.00;99.13
76448;BME280;65284;51.040;13.722;2023-11-19T03:45:27;99390.84;;;4.04;99.41
76448;BME280;65284;51.040;13.722;2023-11-19T03:47:53;99376.16;;;4.01;99.66
76448;BME280;65284;51.040;13.722;2023-11-19T03:50:20;99376.16;;;4.01;99.72
76448;BME280;65284;51.040;13.722;2023-11-19T03:52:47;99361.09;;;4.03;100.00
76448;BME280;65284;51.040;13.722;2023-11-19T03:55:14;99369.00;;;4.03;99.84
76448;BME280;65284;51.040;13.722;2023-11-19T03:57:40;99354.88;;;4.04;99.78
76448;BME280;65284;51.040;13.722;2023-11-19T04:00:07;99345.19;;;4.05;100.00
76448;BME280;65284;51.040;13.722;2023-11-19T04:02:37;99346.03;;;4.05;100.00
76448;BME280;65284;51.040;13.722;2023-11-19T04:05:04;99348.41;;;4.08;100.00
76448;BME280;65284;51.040;13.722;2023-11-19T04:07:31;99341.63;;;4.06;100.00
76448;BME280;65284;51.040;13.722;2023-11-19T04:09:58;99338.16;;;4.05;100.00
76448;BME280;65284;51.040;13.722;2023-11-19T04:12:25;99334.41;;;4.08;100.00
76448;BME280;65284;51.040;13.722;2023-11-19T04:14:52;99324.75;;;4.08;100.00
76448;BME280;65284;51.040;13.722;2023-11-19T04:17:21;99318.09;;;4.04;100.00
76448;BME280;65284;51.040;13.722;2023-11-19T04:19:49;99321.84;;;4.12;100.00
76448;BME280;65284;51.040;13.722;2023-11-19T04:22:15;99319.50;;;4.08;100.00
76448;BME280;65284;51.040;13.722;2023-11-19T04:24:42;99339.53;;;4.09;100.00
76448;BME280;65284;51.040;13.722;2023-11-19T04:27:10;99341.47;;;4.07;100.00
76448;BME280;65284;51.040;13.722;2023-11-19T04:29:36;99324.03;;;4.06;100.00
76448;BME280;65284;51.040;13.722;2023-11-19T04:32:03;99306.91;;;4.02;100.00
76448;BME280;65284;51.040;13.722;2023-11-19T04:34:31;99306.75;;;4.04;100.00
76448;BME280;65284;51.040;13.722;2023-11-19T04:36:58;99310.34;;;4.03;100.00
76448;BME280;65284;51.040;13.722;2023-11-19T04:39:38;99307.03;;;4.01;100.00
76448;BME280;65284;51.040;13.722;2023-11-19T04:42:05;99303.69;;;3.99;100.00
76448;BME280;65284;51.040;13.722;2023-11-19T04:44:33;99303.41;;;3.92;100.00
76448;BME280;65284;51.040;13.722;2023-11-19T04:46:59;99301.50;;;3.94;100.00
76448;BME280;65284;51.040;13.722;2023-11-19T04:49:26;99298.44;;;3.89;100.00
76448;BME280;65284;51.040;13.722;2023-11-19T04:51:54;99297.63;;;3.88;100.00
76448;BME280;65284;51.040;13.722;2023-11-19T04:54:20;99280.75;;;3.91;100.00
76448;BME280;65284;51.040;13.722;2023-11-19T04:56:47;99274.09;;;3.87;100.00
76448;BME280;65284;51.040;13.722;2023-11-19T04:59:14;99263.84;;;3.84;100.00
76448;BME280;65284;51.040;13.722;2023-11-19T05:01:40;99273.00;;;3.80;100.00
76448;BME280;65284;51.040;13.722;2023-11-19T05:04:07;99276.31;;;3.82;100.00
76448;BME280;65284;51.040;13.722;2023-11-19T05:06:34;99268.00;;;3.77;100.00
76448;BME280;65284;51.040;13.722;2023-11-19T05:09:01;99263.03;;;3.74;100.00
76448;BME280;65284;51.040;13.722;2023-11-19T05:11:32;99259.44;;;3.75;100.00
76448;BME280;65284;51.040;13.722;2023-11-19T05:13:59;99262.31;;;3.72;100.00
76448;BME280;65284;51.040;13.722;2023-11-19T05:16:26;99247.53;;;3.71;100.00
76448;BME280;65284;51.040;13.722;2023-11-19T05:18:52;99261.63;;;3.70;100.00
76448;BME280;65284;51.040;13.722;2023-11-19T05:21:19;99256.38;;;3.70;100.00
76448;BME280;65284;51.040;13.722;2023-11-19T05:23:45;99250.56;;;3.66;100.00
76448;BME280;65284;51.040;13.722;2023-11-19T05:26:20;99244.22;;;3.69;100.00
76448;BME280;65284;51.040;13.722;2023-11-19T05:28:47;99228.34;;;3.70;100.00
76448;BME280;65284;51.040;13.722;2023-11-19T05:31:15;99228.72;;;3.65;100.00
76448;BME280;65284;51.040;13.722;2023-11-19T05:33:42;99228.47;;;3.69;100.00
76448;BME280;65284;51.040;13.722;2023-11-19T05:36:11;99219.88;;;3.67;100.00
76448;BME280;65284;51.040;13.722;2023-11-19T05:38:38;99233.97;;;3.65;100.00
76448;BME280;65284;51.040;13.722;2023-11-19T05:41:04;99219.88;;;3.67;100.00
76448;BME280;65284;51.040;13.722;2023-11-19T05:43:32;99208.97;;;3.61;100.00
76448;BME280;65284;51.040;13.722;2023-11-19T05:45:58;99210.22;;;3.67;100.00
76448;BME280;65284;51.040;13.722;2023-11-19T05:48:26;99221.84;;;3.64;100.00
76448;BME280;65284;51.040;13.722;2023-11-19T05:50:53;99217.97;;;3.69;100.00
76448;BME280;65284;51.040;13.722;2023-11-19T05:53:20;99202.19;;;3.69;100.00
76448;BME280;65284;51.040;13.722;2023-11-19T05:55:46;99182.03;;;3.69;100.00
76448;BME280;65284;51.040;13.722;2023-11-19T05:58:23;99212.16;;;3.65;100.00
76448;BME280;65284;51.040;13.722;2023-11-19T06:00:51;99210.63;;;3.62;100.00
76448;BME280;65284;51.040;13.722;2023-11-19T06:03:17;99206.19;;;3.63;100.00
76448;BME280;65284;51.040;13.722;2023-11-19T06:05:45;99191.28;;;3.63;100.00
76448;BME280;65284;51.040;13.722;2023-11-19T06:08:12;99187.97;;;3.61;100.00
76448;BME280;65284;51.040;13.722;2023-11-19T06:10:40;99183.00;;;3.58;100.00
76448;BME280;65284;51.040;13.722;2023-11-19T06:13:07;99171.94;;;3.64;100.00
76448;BME280;65284;51.040;13.722;2023-11-19T06:15:36;99167.78;;;3.62;100.00
76448;BME280;65284;51.040;13.722;2023-11-19T06:18:02;99155.22;;;3.65;100.00
76448;BME280;65284;51.040;13.722;2023-11-19T06:20:30;99158.13;;;3.62;100.00
76448;BME280;65284;51.040;13.722;2023-11-19T06:23:09;99155.06;;;3.57;100.00
76448;BME280;65284;51.040;13.722;2023-11-19T06:25:35;99146.63;;;3.54;100.00
76448;BME280;65284;51.040;13.722;2023-11-19T06:28:03;99141.28;;;3.55;100.00
76448;BME280;65284;51.040;13.722;2023-11-19T06:30:29;99145.81;;;3.53;100.00
76448;BME280;65284;51.040;13.722;2023-11-19T06:32:58;99137.78;;;3.55;100.00
76448;BME280;65284;51.040;13.722;2023-11-19T06:35:26;99137.66;;;3.56;100.00
76448;BME280;65284;51.040;13.722;2023-11-19T06:37:52;99147.19;;;3.57;100.00
76448;BME280;65284;51.040;13.722;2023-11-19T06:40:19;99156.59;;;3.60;100.00
76448;BME280;65284;51.040;13.722;2023-11-19T06:42:46;99145.00;;;3.62;100.00
76448;BME280;65284;51.040;13.722;2023-11-19T06:45:12;99150.41;;;3.61;100.00
76448;BME280;65284;51.040;13.722;2023-11-19T06:47:38;99137.53;;;3.68;100.00
76448;BME280;65284;51.040;13.722;2023-11-19T06:50:06;99137.53;;;3.68;100.00
76448;BME280;65284;51.040;13.722;2023-11-19T06:52:33;99146.66;;;3.73;100.00
76448;BME280;65284;51.040;13.722;2023-11-19T06:55:00;99151.34;;;3.70;100.00
76448;BME280;65284;51.040;13.722;2023-11-19T06:57:29;99136.69;;;3.77;100.00
76448;BME280;65284;51.040;13.722;2023-11-19T06:59:58;99129.22;;;3.72;100.00
76448;BME280;65284;51.040;13.722;2023-11-19T07:02:25;99127.03;;;3.77;100.00
76448;BME280;65284;51.040;13.722;2023-11-19T07:04:53;99138.34;;;3.78;100.00
76448;BME280;65284;51.040;13.722;2023-11-19T07:07:20;99146.09;;;3.79;100.00
76448;BME280;65284;51.040;13.722;2023-11-19T07:09:47;99132.81;;;3.81;100.00
76448;BME280;65284;51.040;13.722;2023-11-19T07:12:14;99143.31;;;3.81;100.00
76448;BME280;65284;51.040;13.722;2023-11-19T07:14:40;99150.91;;;3.84;100.00
76448;BME280;65284;51.040;13.722;2023-11-19T07:17:08;99160.75;;;3.82;100.00
76448;BME280;65284;51.040;13.722;2023-11-19T07:19:37;99160.75;;;3.82;100.00
76448;BME280;65284;51.040;13.722;2023-11-19T07:22:05;99162.41;;;3.83;100.00
76448;BME280;65284;51.040;13.722;2023-11-19T07:24:32;99151.63;;;3.86;100.00
76448;BME280;65284;51.040;13.722;2023-11-19T07:26:59;99160.47;;;3.85;100.00
76448;BME280;65284;51.040;13.722;2023-11-19T07:29:25;99155.91;;;3.87;100.00
76448;BME280;65284;51.040;13.722;2023-11-19T07:31:55;99161.84;;;3.89;100.00
76448;BME280;65284;51.040;13.722;2023-11-19T07:34:24;99161.28;;;3.95;100.00
76448;BME280;65284;51.040;13.722;2023-11-19T07:36:51;99155.34;;;3.93;100.00
76448;BME280;65284;51.040;13.722;2023-11-19T07:39:17;99148.16;;;3.95;100.00
76448;BME280;65284;51.040;13.722;2023-11-19T07:41:44;99154.38;;;4.04;100.00
76448;BME280;65284;51.040;13.722;2023-11-19T07:44:10;99135.84;;;4.05;100.00
76448;BME280;65284;51.040;13.722;2023-11-19T07:46:37;99144.41;;;4.07;100.00
76448;BME280;65284;51.040;13.722;2023-11-19T07:49:04;99155.59;;;4.09;100.00
76448;BME280;65284;51.040;13.722;2023-11-19T07:51:30;99154.75;;;4.19;100.00
76448;BME280;65284;51.040;13.722;2023-11-19T07:53:57;99150.75;;;4.24;100.00
76448;BME280;65284;51.040;13.722;2023-11-19T07:56:23;99151.56;;;4.25;100.00
76448;BME280;65284;51.040;13.722;2023-11-19T07:58:50;99154.88;;;4.27;100.00
76448;BME280;65284;51.040;13.722;2023-11-19T08:01:16;99149.63;;;4.27;100.00
76448;BME280;65284;51.040;13.722;2023-11-19T08:03:42;99156.25;;;4.31;100.00
76448;BME280;65284;51.040;13.722;2023-11-19T08:06:24;99159.00;;;4.39;100.00
76448;BME280;65284;51.040;13.722;2023-11-19T08:08:51;99167.59;;;4.41;100.00
76448;BME280;65284;51.040;13.722;2023-11-19T08:11:18;99160.94;;;4.47;100.00
76448;BME280;65284;51.040;13.722;2023-11-19T08:13:46;99164.22;;;4.59;100.00
76448;BME280;65284;51.040;13.722;2023-11-19T08:16:12;99163.66;;;4.65;100.00
76448;BME280;65284;51.040;13.722;2023-11-19T08:18:43;99139.28;;;4.63;100.00
76448;BME280;65284;51.040;13.722;2023-11-19T08:21:10;99126.38;;;4.69;100.00
76448;BME280;65284;51.040;13.722;2023-11-19T08:23:37;99124.56;;;4.70;100.00
76448;BME280;65284;51.040;13.722;2023-11-19T08:26:05;99117.59;;;4.78;100.00
76448;BME280;65284;51.040;13.722;2023-11-19T08:28:32;99115.16;;;4.77;100.00
76448;BME280;65284;51.040;13.722;2023-11-19T08:31:01;99115.81;;;4.79;100.00
76448;BME280;65284;51.040;13.722;2023-11-19T08:33:27;99116.72;;;4.88;100.00
76448;BME280;65284;51.040;13.722;2023-11-19T08:35:54;99119.34;;;4.97;100.00
76448;BME280;65284;51.040;13.722;2023-11-19T08:38:21;99120.56;;;5.03;100.00
76448;BME280;65284;51.040;13.722;2023-11-19T08:40:50;99124.75;;;5.14;100.00
76448;BME280;65284;51.040;13.722;2023-11-19T08:43:18;99134.03;;;5.18;100.00
76448;BME280;65284;51.040;13.722;2023-11-19T08:45:44;99141.34;;;5.24;100.00
76448;BME280;65284;51.040;13.722;2023-11-19T08:48:11;99132.44;;;5.25;100.00
76448;BME280;65284;51.040;13.722;2023-11-19T08:50:37;99113.13;;;5.34;100.00
76448;BME280;65284;51.040;13.722;2023-11-19T08:53:04;99145.81;;;5.41;100.00
76448;BME280;65284;51.040;13.722;2023-11-19T08:55:33;99135.78;;;5.45;100.00
76448;BME280;65284;51.040;13.722;2023-11-19T08:57:59;99137.91;;;5.59;100.00
76448;BME280;65284;51.040;13.722;2023-11-19T09:00:26;99150.16;;;5.86;100.00
76448;BME280;65284;51.040;13.722;2023-11-19T09:02:52;99149.56;;;5.92;100.00
76448;BME280;65284;51.040;13.722;2023-11-19T09:05:19;99166.44;;;6.00;100.00
76448;BME280;65284;51.040;13.722;2023-11-19T09:07:46;99169.22;;;6.42;100.00
76448;BME280;65284;51.040;13.722;2023-11-19T09:10:12;99169.25;;;6.76;100.00
76448;BME280;65284;51.040;13.722;2023-11-19T09:12:39;99171.56;;;7.14;100.00
76448;BME280;65284;51.040;13.722;2023-11-19T09:15:05;99161.91;;;7.31;100.00
76448;BME280;65284;51.040;13.722;2023-11-19T09:17:32;99146.44;;;7.60;100.00
76448;BME280;65284;51.040;13.722;2023-11-19T09:19:59;99150.75;;;7.69;100.00
76448;BME280;65284;51.040;13.722;2023-11-19T09:22:26;99153.38;;;7.78;100.00
76448;BME280;65284;51.040;13.722;2023-11-19T09:24:52;99148.78;;;7.96;100.00
76448;BME280;65284;51.040;13.722;2023-11-19T09:27:19;99149.75;;;8.11;100.00
76448;BME280;65284;51.040;13.722;2023-11-19T09:29:45;99164.78;;;8.27;100.00
76448;BME280;65284;51.040;13.722;2023-11-19T09:32:12;99159.66;;;8.42;100.00
76448;BME280;65284;51.040;13.722;2023-11-19T09:34:39;99160.66;;;8.49;100.00
76448;BME280;65284;51.040;13.722;2023-11-19T09:37:06;99149.72;;;8.36;100.00
76448;BME280;65284;51.040;13.722;2023-11-19T09:39:47;99138.97;;;8.46;100.00
76448;BME280;65284;51.040;13.722;2023-11-19T09:42:13;99144.44;;;8.52;100.00
76448;BME280;65284;51.040;13.722;2023-11-19T09:44:41;99151.16;;;8.71;100.00
76448;BME280;65284;51.040;13.722;2023-11-19T09:47:10;99152.81;;;8.72;100.00
76448;BME280;65284;51.040;13.722;2023-11-19T09:49:37;99161.72;;;8.87;100.00
76448;BME280;65284;51.040;13.722;2023-11-19T09:52:05;99161.50;;;8.97;100.00
76448;BME280;65284;51.040;13.722;2023-11-19T09:54:31;99156.00;;;9.07;100.00
76448;BME280;65284;51.040;13.722;2023-11-19T09:56:59;99142.53;;;9.17;100.00
76448;BME280;65284;51.040;13.722;2023-11-19T09:59:30;99139.91;;;9.17;100.00
76448;BME280;65284;51.040;13.722;2023-11-19T10:01:57;99155.59;;;9.26;100.00
76448;BME280;65284;51.040;13.722;2023-11-19T10:04:23;99146.63;;;9.27;100.00
76448;BME280;65284;51.040;13.722;2023-11-19T10:06:51;99130.47;;;9.45;100.00
76448;BME280;65284;51.040;13.722;2023-11-19T10:09:18;99143.97;;;9.59;100.00
76448;BME280;65284;51.040;13.722;2023-11-19T10:11:45;99125.13;;;9.53;100.00
76448;BME280;65284;51.040;13.722;2023-11-19T10:14:12;99123.00;;;9.49;100.00
76448;BME280;65284;51.040;13.722;2023-11-19T10:16:40;99130.47;;;9.45;100.00
76448;BME280;65284;51.040;13.722;2023-11-19T10:19:07;99140.78;;;9.63;100.00
76448;BME280;65284;51.040;13.722;2023-11-19T10:21:33;99115.81;;;9.57;100.00
76448;BME280;65284;51.040;13.722;2023-11-19T10:24:00;99114.16;;;9.56;100.00
76448;BME280;65284;51.040;13.722;2023-11-19T10:26:27;99121.81;;;9.74;100.00
76448;BME280;65284;51.040;13.722;2023-11-19T10:28:55;99121.63;;;9.76;100.00
76448;BME280;65284;51.040;13.722;2023-11-19T10:31:22;99132.06;;;9.77;100.00
76448;BME280;65284;51.040;13.722;2023-11-19T10:33:53;99131.56;;;9.82;100.00
76448;BME280;65284;51.040;13.722;2023-11-19T10:36:20;99132.19;;;9.84;100.00
76448;BME280;65284;51.040;13.722;2023-11-19T10:38:53;99138.81;;;9.88;100.00
76448;BME280;65284;51.040;13.722;2023-11-19T10:41:30;99127.84;;;9.91;100.00
76448;BME280;65284;51.040;13.722;2023-11-19T10:44:00;99125.19;;;9.91;100.00
76448;BME280;65284;51.040;13.722;2023-11-19T10:46:40;99108.34;;;9.99;100.00
76448;BME280;65284;51.040;13.722;2023-11-19T10:49:07;99116.16;;;10.00;100.00
76448;BME280;65284;51.040;13.722;2023-11-19T10:51:34;99096.56;;;10.01;100.00
76448;BME280;65284;51.040;13.722;2023-11-19T10:54:05;99105.53;;;10.00;100.00
76448;BME280;65284;51.040;13.722;2023-11-19T10:56:33;99127.75;;;9.99;100.00
76448;BME280;65284;51.040;13.722;2023-11-19T10:59:00;99131.72;;;10.03;100.00
76448;BME280;65284;51.040;13.722;2023-11-19T11:01:36;99118.03;;;10.15;100.00
76448;BME280;65284;51.040;13.722;2023-11-19T11:04:05;99115.63;;;10.20;100.00
76448;BME280;65284;51.040;13.722;2023-11-19T11:06:33;99112.81;;;10.21;100.00
76448;BME280;65284;51.040;13.722;2023-11-19T11:09:00;99113.25;;;10.25;100.00
76448;BME280;65284;51.040;13.722;2023-11-19T11:11:27;99122.25;;;10.24;100.00
76448;BME280;65284;51.040;13.722;2023-11-19T11:13:54;99123.88;;;10.25;100.00
76448;BME280;65284;51.040;13.722;2023-11-19T11:16:22;99120.22;;;10.26;100.00
76448;BME280;65284;51.040;13.722;2023-11-19T11:18:50;99112.00;;;10.21;100.00
76448;BME280;65284;51.040;13.722;2023-11-19T11:21:21;99107.88;;;10.18;100.00
76448;BME280;65284;51.040;13.722;2023-11-19T11:33:10;99126.50;;;10.33;99.46
76448;BME280;65284;51.040;13.722;2023-11-19T11:35:58;99123.09;;;10.39;98.99
76448;BME280;65284;51.040;13.722;2023-11-19T11:38:28;99117.50;;;10.34;99.16
76448;BME280;65284;51.040;13.722;2023-11-19T11:41:16;99120.81;;;10.36;98.50
76448;BME280;65284;51.040;13.722;2023-11-19T11:43:46;99109.09;;;10.45;97.64
76448;BME280;65284;51.040;13.722;2023-11-19T11:49:02;99106.94;;;10.26;98.78
76448;BME280;65284;51.040;13.722;2023-11-19T11:54:25;99120.09;;;10.42;96.69
76448;BME280;65284;51.040;13.722;2023-11-19T11:57:08;99112.50;;;10.39;97.03
76448;BME280;65284;51.040;13.722;2023-11-19T12:02:09;99097.75;;;10.52;95.85
76448;BME280;65284;51.040;13.722;2023-11-19T12:04:36;99096.38;;;10.70;94.08
76448;BME280;65284;51.040;13.722;2023-11-19T12:07:08;99116.53;;;10.80;93.80
76448;BME280;65284;51.040;13.722;2023-11-19T12:09:40;99109.09;;;10.75;94.65
76448;BME280;65284;51.040;13.722;2023-11-19T12:12:13;99106.44;;;10.75;94.80
76448;BME280;65284;51.040;13.722;2023-11-19T12:15:00;99100.69;;;10.86;93.06
76448;BME280;65284;51.040;13.722;2023-11-19T12:20:00;99103.47;;;11.00;91.42
76448;BME280;65284;51.040;13.722;2023-11-19T12:22:27;99093.06;;;10.98;91.93
76448;BME280;65284;51.040;13.722;2023-11-19T12:24:54;99077.56;;;11.02;91.05
76448;BME280;65284;51.040;13.722;2023-11-19T12:27:21;99087.97;;;11.18;89.90
76448;BME280;65284;51.040;13.722;2023-11-19T12:29:50;99096.63;;;11.27;89.29
76448;BME280;65284;51.040;13.722;2023-11-19T12:32:17;99067.72;;;11.38;87.43
76448;BME280;65284;51.040;13.722;2023-11-19T12:34:45;99081.72;;;11.47;87.50
76448;BME280;65284;51.040;13.722;2023-11-19T12:37:11;99067.34;;;11.42;87.76
76448;BME280;65284;51.040;13.722;2023-11-19T12:39:38;99075.09;;;11.36;87.78
76448;BME280;65284;51.040;13.722;2023-11-19T12:42:04;99074.72;;;11.39;87.10
76448;BME280;65284;51.040;13.722;2023-11-19T12:44:31;99084.19;;;11.49;86.52
76448;BME280;65284;51.040;13.722;2023-11-19T12:47:01;99075.22;;;11.50;85.72
76448;BME280;65284;51.040;13.722;2023-11-19T12:49:28;99047.75;;;11.43;86.36
76448;BME280;65284;51.040;13.722;2023-11-19T12:51:54;99066.63;;;11.48;85.92
76448;BME280;65284;51.040;13.722;2023-11-19T12:54:35;99062.56;;;11.52;85.86
76448;BME280;65284;51.040;13.722;2023-11-19T12:57:02;99056.66;;;11.56;86.03
76448;BME280;65284;51.040;13.722;2023-11-19T12:59:29;99073.13;;;11.45;86.52
76448;BME280;65284;51.040;13.722;2023-11-19T13:01:57;99069.78;;;11.58;84.74
76448;BME280;65284;51.040;13.722;2023-11-19T13:04:28;99061.78;;;11.58;84.67
76448;BME280;65284;51.040;13.722;2023-11-19T13:06:54;99056.03;;;11.54;85.03
76448;BME280;65284;51.040;13.722;2023-11-19T13:09:26;99052.78;;;11.59;84.90
76448;BME280;65284;51.040;13.722;2023-11-19T13:11:53;99063.56;;;11.51;84.85
76448;BME280;65284;51.040;13.722;2023-11-19T13:14:21;99049.91;;;11.54;84.68